FKYS/NSI METAR and TAF weather

Enter ICAO airport designator
Station Type Date Time Source
FKYS METAR 2018/04/27 00:00 UTC NOAA

FKYS 270000Z /////KT 9999 BKN006 23/23 Q1016 NOSIG


Station Type Date Time Source
FKYS Decoded METAR 2018/04/27 00:00 UTC NOAA

Yaounde, Cameroon (FKYS) 03-50N 011-31E 760M
Apr 26, 2018 - 08:00 PM EDT / 2018.04.27 0000 UTC
Visibility: greater than 7 mile(s):0
Sky conditions: mostly cloudy
Temperature: 73 F (23 C)
Dew Point: 73 F (23 C)
Relative Humidity: 100%
Pressure (altimeter): 30.00 in. Hg (1016 hPa)
ob: FKYS 270000Z /////KT 9999 BKN006 23/23 Q1016 NOSIG
cycle: 0

Station Type Date Time Source
FKYS TAF 2018/04/26 18:00 UTC NOAA

TAF FKYS 261700Z 2618/2718 VRB03KT 9999 SCT020
TEMPO 2620/2707 TS BKN006 FEW023CB
TEMPO 2700/2707 4000 TSRA PROB40 2702/2705 2500 +TSRA OVC009 SCT010CB
BECMG 2708/2710 BKN016


Example: see airport list